Aviation Digital Data Service (ADDS)

Output produced by TAFs form (0018 UTC 07 July 2015)
found at http://aviationweather.gov/adds/tafs/
 
KAMA 062320Z 0700/0724 02014KT P6SM SCT050 BKN110 
     TEMPO 0700/0704 4SM TSRA BKN030CB 
     FM070500 02013KT 4SM -TSRA OVC025CB 
     TEMPO 0705/0709 1SM TSRA BR OVC015CB 
     FM070900 02014KT 5SM -SHRA BR OVC010 
     FM071600 04013KT P6SM OVC040 
     PROB30 0716/0722 4SM -TSRA OVC020CB